SCATSLLP

Guest
Details From SCAT - Desierto De Atacama
To SLLP - La Paz
Flight Number -
Tags Generated
Created
Modified
Stats Distance 661 nm / 1,225 km
Max Altitude 0 ft / 0 m
Waypoints 3
Social Downloads 1
Likes 0
Share VATSIM

Download

Looking for another format? Having issues loading an existing format? Contact us
Advertisement - Login to hide

Notes

Generated

Route

SCAT R2450 SLLP

ID Type Via Altitude Latitude Longitude Leg Dist Tot Dist Heading (true) Name
O SCAT APT - 0 ft / 0 m -27.25139˚ -70.78012˚ - 0 nm - -
R2450 FIX - 0 ft / 0 m -16.51274˚ -68.21098˚ 660 nm 660 nm 13° / 12° -
O SLLP APT - 0 ft / 0 m -16.50414˚ -68.19836˚ 0 nm 661 nm 55° / 55° -

Altitude Profile

Advertisement - Login to hide

Weather


0- 5 10 15 20 25 30 35+ Temperature / ° C

Clouds and Precipitation
Forecast for 2017-12-12 06:00 UTC. Updated 2 hours ago

Ground ~20,000 ft ~40,000 ft Winds

SCAT

Details ICAO SCAT
Name DESIERTO DE ATACAMA
Region Chile
Timezone America/Santiago (UTC-3.0)
Stats Elevation 670 ft / 204 m (AMSL)
Location -27.261246° -70.779220°
Runways 1
Magnetic Variation 1.435° W

METAR

SCAT 120700Z AUTO 07003KT //// // ///026 15/11 Q1018

Decode

TAF

TAF SCAT 112232Z 1200/1224 27006KT 9999 OVC020 TN15/1205Z TX20/1217Z BECMG 1204/1206 05004KT BECMG 1212/1214 33010KT OVC027 BECMG 1215/1217 27015KT CAVOK BECMG 1222/1224 23010KT

Decode

Departure Runways

ID Width Length Bearing (true) Bearing (mag) Surface Threshold Offset Overrun Length
17 148 ft / 45 m 7,214 ft / 2,199 m 175.35° 176.79° Asphalt 0 ft / 0 m 195 ft / 59 m
35 148 ft / 45 m 7,214 ft / 2,199 m 355.35° 356.79° Asphalt 0 ft / 0 m 195 ft / 59 m

SLLP

Details ICAO SLLP (LPB)
Name La Paz
Region Bolivia
Timezone America/La_Paz (UTC-4.0)
Stats Elevation 13,313 ft / 4,058 m (AMSL)
Location -16.509356° -68.190551°
Runways 2
Magnetic Variation 7.916° W

METAR

SLLP 120700Z 11008KT 4000E VCFG FEW002 SCT010 BKN200 06/05 Q1036

Decode

TAF

TAF SLLP 112200Z 1200/1224 13010KT 9999 FEW017 FEW020CB TX19/1219Z TN03/1210Z PROB30 TEMPO 1206/1210 3000E VCFG FEW002 BECMG 1211/1213 12006KT FEW010

Decode

Destination Runways

ID Width Length Bearing (true) Bearing (mag) Surface Threshold Offset Overrun Length
10 151 ft / 46 m 13,106 ft / 3,995 m 91.90° 99.82° Concrete 0 ft / 0 m 200 ft / 61 m
10L 300 ft / 91 m 6,718 ft / 2,048 m 97.72° 105.64° Dirt 0 ft / 0 m 0 ft / 0 m
28 151 ft / 46 m 13,106 ft / 3,995 m 271.89° 279.81° Concrete 0 ft / 0 m 0 ft / 0 m
28R 300 ft / 91 m 6,718 ft / 2,048 m 277.71° 285.63° Dirt 0 ft / 0 m 0 ft / 0 m

Approach Navaids

Runway Type Ident Frequency Range Bearing (true) Bearing (mag) Slope Elevation
10 Localiser ILPA 110.30 MHz 18 nm / 33 km 91.89° 99.80° - 13,313 ft / 4,058 m (AMSL)
10 Glidescope ILPA 110.30 MHz 10 nm / 19 km 91.89° 99.81° 2.40° 13,313 ft / 4,058 m (AMSL)

Popular Alternatives